Time;durP1;ratioP1;P1;durP2;ratioP2;P2;SDS_P1;SDS_P2;PMS_P1;PMS_P2;Temp;Humidity;BMP_temperature;BMP_pressure;BME280_temperature;BME280_humidity;BME280_pressure;Samples;Min_cycle;Max_cycle;Signal;HPM_P1;HPM_P2
2023/07/02 00:01:02;;;;;;;6.15;2.90;;;;;;;23.80;50.78;100667.06;5031855;28;20036;-66
2023/07/02 00:03:27;;;;;;;6.60;2.90;;;;;;;23.81;51.14;100655.38;5031505;28;20120;-64
2023/07/02 00:05:54;;;;;;;6.50;3.10;;;;;;;23.77;50.58;100650.59;5031975;28;20525;-65
2023/07/02 00:08:21;;;;;;;6.30;2.83;;;;;;;23.80;50.56;100661.72;5031590;28;20585;-64
2023/07/02 00:10:46;;;;;;;7.65;3.10;;;;;;;23.78;50.75;100655.72;5031547;28;20029;-65
2023/07/02 00:13:11;;;;;;;8.30;3.45;;;;;;;23.79;50.42;100660.06;5031764;28;20371;-65
2023/07/02 00:15:37;;;;;;;8.80;3.73;;;;;;;23.76;50.65;100657.72;5031435;28;20243;-65
2023/07/02 00:18:02;;;;;;;7.45;3.50;;;;;;;23.78;50.87;100654.91;5031750;28;20259;-66
2023/07/02 00:20:27;;;;;;;7.80;3.50;;;;;;;23.77;50.47;100655.91;5030979;28;20084;-64
2023/07/02 00:22:54;;;;;;;7.47;3.23;;;;;;;23.76;50.29;100656.91;5031254;28;20028;-65
2023/07/02 00:25:20;;;;;;;8.65;3.95;;;;;;;23.77;50.70;100659.41;5031383;28;20304;-66
2023/07/02 00:27:45;;;;;;;6.25;3.40;;;;;;;23.75;50.62;100660.56;5030870;28;20457;-66
2023/07/02 00:30:11;;;;;;;6.50;3.50;;;;;;;23.76;50.54;100657.72;5031585;28;20509;-65
2023/07/02 00:32:36;;;;;;;9.23;4.00;;;;;;;23.75;50.42;100655.22;5031005;28;20044;-64
2023/07/02 00:35:01;;;;;;;7.22;3.78;;;;;;;23.72;50.38;100646.59;5031477;28;20022;-65
2023/07/02 00:37:27;;;;;;;7.80;3.90;;;;;;;23.73;50.69;100650.94;5030981;28;20587;-65
2023/07/02 00:39:52;;;;;;;7.97;4.55;;;;;;;23.73;50.74;100647.41;5031578;28;20047;-65
2023/07/02 00:42:17;;;;;;;6.90;3.70;;;;;;;23.71;50.65;100641.44;5030624;28;20072;-65
2023/07/02 00:44:43;;;;;;;7.55;4.03;;;;;;;23.73;50.42;100648.25;5031228;28;20052;-64
2023/07/02 00:47:09;;;;;;;7.38;4.03;;;;;;;23.73;50.41;100647.41;5030809;28;20033;-64
2023/07/02 00:49:35;;;;;;;9.13;4.88;;;;;;;23.72;50.30;100645.78;5031397;28;20033;-66
2023/07/02 00:52:00;;;;;;;9.10;4.70;;;;;;;23.73;50.43;100652.75;5030039;28;20025;-65
2023/07/02 00:54:28;;;;;;;8.55;5.03;;;;;;;23.71;50.05;100660.06;5031318;28;20033;-65
2023/07/02 00:56:54;;;;;;;8.38;5.03;;;;;;;23.72;50.12;100661.75;5031073;28;20040;-65
2023/07/02 00:59:19;;;;;;;9.35;5.15;;;;;;;23.71;50.12;100663.53;5030725;28;20944;-65
2023/07/02 01:01:49;;;;;;;9.15;5.10;;;;;;;23.70;50.06;100664.56;5030742;28;20121;-65
2023/07/02 01:04:17;;;;;;;9.23;5.30;;;;;;;23.69;49.91;100670.03;5031046;28;20072;-66
2023/07/02 01:06:43;;;;;;;8.88;5.38;;;;;;;23.70;49.99;100671.69;5030959;28;20034;-65
2023/07/02 01:09:09;;;;;;;8.35;5.10;;;;;;;23.70;49.88;100671.69;5030399;28;20996;-64
2023/07/02 01:11:38;;;;;;;9.95;5.30;;;;;;;23.68;49.72;100671.84;5030790;28;20033;-66
2023/07/02 01:14:14;;;;;;;11.45;5.50;;;;;;;23.66;50.16;100673.84;5030555;28;20044;-66
2023/07/02 01:16:43;;;;;;;8.00;4.75;;;;;;;23.68;49.92;100671.84;5030643;28;20043;-66
2023/07/02 01:19:18;;;;;;;9.88;5.45;;;;;;;23.68;49.85;100673.69;5030492;28;20048;-65
2023/07/02 01:21:45;;;;;;;8.40;5.55;;;;;;;23.70;49.73;100677.00;5034065;28;20533;-65
2023/07/02 01:24:10;;;;;;;9.98;5.85;;;;;;;23.69;49.76;100680.69;5034274;28;20079;-65
2023/07/02 01:26:37;;;;;;;9.55;5.93;;;;;;;23.67;49.92;100686.19;5034854;28;20041;-65
2023/07/02 01:29:14;;;;;;;11.02;6.40;;;;;;;23.67;49.68;100687.97;5034752;28;20753;-67
2023/07/02 01:31:40;;;;;;;11.52;6.55;;;;;;;23.67;49.93;100682.66;5034986;28;20044;-66
2023/07/02 01:34:07;;;;;;;12.77;6.43;;;;;;;23.62;49.80;100685.00;5034990;28;20029;-66
2023/07/02 01:36:32;;;;;;;10.77;6.00;;;;;;;23.66;49.46;100692.47;5034472;28;20263;-65
2023/07/02 01:38:58;;;;;;;10.90;6.67;;;;;;;23.65;49.56;100685.47;5034322;28;20128;-66
2023/07/02 01:41:23;;;;;;;12.63;6.78;;;;;;;23.66;49.89;100689.81;5033714;28;20309;-67
2023/07/02 01:43:48;;;;;;;9.27;5.88;;;;;;;23.67;49.86;100699.47;5034613;28;20110;-65
2023/07/02 01:46:14;;;;;;;12.82;7.35;;;;;;;23.66;49.76;100700.47;5034573;28;20830;-66
2023/07/02 01:48:39;;;;;;;10.90;6.53;;;;;;;23.66;49.77;100700.47;5034668;28;20056;-65
2023/07/02 01:51:04;;;;;;;12.07;6.93;;;;;;;23.66;49.73;100694.31;5033983;28;20037;-64
2023/07/02 01:53:30;;;;;;;10.98;6.53;;;;;;;23.64;49.59;100701.59;5033878;28;20453;-65
2023/07/02 01:55:55;;;;;;;11.85;6.82;;;;;;;23.64;49.78;100697.13;5034836;28;20576;-66
2023/07/02 01:58:20;;;;;;;12.67;7.50;;;;;;;23.64;49.37;100702.47;5033897;28;20033;-64
2023/07/02 02:00:46;;;;;;;11.75;7.07;;;;;;;23.64;49.22;100702.47;5034123;28;20272;-64
2023/07/02 02:03:11;;;;;;;12.07;7.43;;;;;;;23.63;49.19;100694.66;5033944;28;20037;-66
2023/07/02 02:05:36;;;;;;;11.60;6.88;;;;;;;23.61;49.31;100699.31;5034291;28;20033;-65
2023/07/02 02:08:02;;;;;;;12.88;7.15;;;;;;;23.62;49.47;100698.28;5034006;28;20029;-65
2023/07/02 02:10:27;;;;;;;12.02;7.85;;;;;;;23.62;49.53;100698.28;5034067;28;20039;-66
2023/07/02 02:12:52;;;;;;;14.52;9.02;;;;;;;23.60;49.14;100702.94;5033586;28;20092;-66
2023/07/02 02:15:18;;;;;;;11.40;7.10;;;;;;;23.61;49.64;100707.28;5034003;28;20061;-65
2023/07/02 02:17:43;;;;;;;11.10;7.32;;;;;;;23.60;49.57;100711.75;5033462;28;20393;-66
2023/07/02 02:20:09;;;;;;;13.73;8.38;;;;;;;23.59;49.15;100699.47;5033842;28;20414;-67
2023/07/02 02:22:35;;;;;;;11.48;7.07;;;;;;;23.59;49.38;100699.47;5033190;28;20115;-67
2023/07/02 02:25:00;;;;;;;12.77;7.80;;;;;;;23.61;49.07;100699.31;5033784;28;20116;-66
2023/07/02 02:27:25;;;;;;;12.73;8.05;;;;;;;23.61;49.50;100709.94;5033570;28;20032;-66
2023/07/02 02:29:50;;;;;;;14.13;7.70;;;;;;;23.60;49.21;100709.09;5033885;28;20123;-65
2023/07/02 02:32:19;;;;;;;12.98;8.43;;;;;;;23.59;49.09;100704.78;5033438;28;20366;-66
2023/07/02 02:34:44;;;;;;;13.07;8.07;;;;;;;23.59;49.54;100703.94;5032835;28;20238;-64
2023/07/02 02:37:10;;;;;;;12.90;8.00;;;;;;;23.58;49.20;100710.28;5033508;28;20029;-65
2023/07/02 02:39:35;;;;;;;14.43;8.00;;;;;;;23.57;49.24;100705.94;5033107;28;20045;-65
2023/07/02 02:42:00;;;;;;;12.32;7.85;;;;;;;23.58;49.41;100718.25;5033650;28;20817;-64
2023/07/02 02:44:25;;;;;;;13.68;8.63;;;;;;;23.57;49.43;100712.09;5039702;28;20036;-65
2023/07/02 02:46:51;;;;;;;14.95;9.05;;;;;;;23.55;49.03;100717.56;5033529;28;20037;-64
2023/07/02 02:49:16;;;;;;;12.98;8.35;;;;;;;23.58;48.96;100723.56;5033375;28;20033;-66
2023/07/02 02:51:41;;;;;;;12.52;8.07;;;;;;;23.57;49.03;100728.03;5033301;28;20492;-65
2023/07/02 02:54:06;;;;;;;13.27;8.68;;;;;;;23.55;49.38;100722.06;5033213;28;20091;-66
2023/07/02 02:56:32;;;;;;;15.03;9.10;;;;;;;23.57;49.11;100721.91;5033355;28;20025;-66
2023/07/02 02:58:57;;;;;;;15.32;8.77;;;;;;;23.57;48.88;100727.22;5031803;28;20762;-66
2023/07/02 03:01:22;;;;;;;13.02;9.02;;;;;;;23.55;49.51;100732.69;5033060;28;20037;-66
2023/07/02 03:03:48;;;;;;;16.63;9.38;;;;;;;23.53;48.90;100740.84;5032787;28;20033;-65
2023/07/02 03:06:14;;;;;;;16.20;9.38;;;;;;;23.54;49.22;100741.66;5032786;28;20049;-65
2023/07/02 03:08:40;;;;;;;14.15;8.80;;;;;;;23.50;49.00;100735.03;5032835;28;20374;-66
2023/07/02 03:11:05;;;;;;;16.40;10.20;;;;;;;23.54;48.84;100741.66;5039797;28;20044;-65
2023/07/02 03:13:31;;;;;;;14.02;9.15;;;;;;;23.53;48.79;100751.47;5032245;28;20064;-65
2023/07/02 03:15:56;;;;;;;13.93;8.52;;;;;;;23.52;49.00;100755.13;5033544;28;20040;-66
2023/07/02 03:18:21;;;;;;;14.88;9.05;;;;;;;23.53;48.87;100761.31;5032427;28;20029;-65
2023/07/02 03:20:47;;;;;;;16.60;9.25;;;;;;;23.52;49.13;100757.78;5032348;28;20049;-66
2023/07/02 03:23:12;;;;;;;14.32;8.88;;;;;;;23.53;48.99;100756.81;5030977;28;20048;-65
2023/07/02 03:25:37;;;;;;;12.27;9.05;;;;;;;23.50;49.18;100753.63;5033118;28;20040;-66
2023/07/02 03:28:03;;;;;;;14.43;8.33;;;;;;;23.50;48.74;100759.78;5032083;28;20103;-66
2023/07/02 03:30:28;;;;;;;14.35;8.93;;;;;;;23.52;48.85;100765.75;5033223;28;20280;-67
2023/07/02 03:32:54;;;;;;;13.82;8.75;;;;;;;23.50;48.70;100764.28;5032140;28;20151;-65
2023/07/02 03:35:20;;;;;;;16.65;9.18;;;;;;;23.49;49.13;100768.75;5032078;28;20120;-66
2023/07/02 03:37:46;;;;;;;13.27;8.83;;;;;;;23.50;48.70;100766.94;5032937;28;20038;-66
2023/07/02 03:40:11;;;;;;;15.35;9.27;;;;;;;23.49;48.73;100776.72;5032325;28;20258;-65
2023/07/02 03:42:37;;;;;;;14.15;9.13;;;;;;;23.49;48.93;100773.25;5030516;28;20052;-65
2023/07/02 03:45:03;;;;;;;16.70;9.32;;;;;;;23.49;48.99;100774.06;5032259;28;20359;-65
2023/07/02 03:47:28;;;;;;;14.20;9.02;;;;;;;23.49;48.94;100774.06;5031906;28;20033;-65
2023/07/02 03:49:54;;;;;;;13.85;8.63;;;;;;;23.48;48.81;100768.91;5031975;28;20072;-66
2023/07/02 03:52:19;;;;;;;14.33;8.77;;;;;;;23.47;48.41;100773.41;5032146;28;20041;-65
2023/07/02 03:54:44;;;;;;;15.57;9.03;;;;;;;23.49;48.75;100784.69;5030915;28;20281;-66
2023/07/02 03:57:10;;;;;;;12.73;8.38;;;;;;;23.48;48.45;100783.06;5031612;28;20271;-67
2023/07/02 03:59:35;;;;;;;13.98;8.27;;;;;;;23.48;48.70;100785.72;5030295;28;20127;-66
2023/07/02 04:02:00;;;;;;;15.02;9.07;;;;;;;23.49;48.70;100781.22;5032390;28;20034;-66
2023/07/02 04:04:26;;;;;;;13.70;8.70;;;;;;;23.47;48.59;100786.69;5030591;28;20032;-67
2023/07/02 04:06:51;;;;;;;14.50;9.00;;;;;;;23.46;48.26;100785.03;5031946;28;20044;-65
2023/07/02 04:09:18;;;;;;;14.15;8.88;;;;;;;23.48;48.49;100793.69;5031380;28;20116;-65
2023/07/02 04:11:43;;;;;;;14.25;8.93;;;;;;;23.47;48.65;100791.19;5031319;28;20048;-65
2023/07/02 04:14:08;;;;;;;16.02;9.75;;;;;;;23.45;48.60;100788.69;5030956;28;20041;-65
2023/07/02 04:16:34;;;;;;;14.07;8.65;;;;;;;23.45;48.21;100791.34;5030592;28;20037;-65
2023/07/02 04:18:59;;;;;;;12.13;8.55;;;;;;;23.45;48.39;100790.50;5032084;28;20053;-66
2023/07/02 04:21:24;;;;;;;14.40;8.68;;;;;;;23.47;47.99;100791.19;5031804;28;20032;-66
2023/07/02 04:23:49;;;;;;;13.40;8.90;;;;;;;23.45;48.10;100794.00;5038356;28;20056;-65
2023/07/02 04:26:15;;;;;;;13.60;8.75;;;;;;;23.44;48.04;100797.66;5031164;28;20938;-65
2023/07/02 04:28:40;;;;;;;15.13;8.40;;;;;;;23.45;48.44;100794.00;5031340;28;20041;-65
2023/07/02 04:31:05;;;;;;;13.77;8.93;;;;;;;23.45;48.44;100794.00;5030854;28;20032;-65
2023/07/02 04:33:35;;;;;;;14.07;8.57;;;;;;;23.44;48.00;100800.31;5030974;28;20335;-65
2023/07/02 04:36:04;;;;;;;15.63;9.68;;;;;;;23.44;48.38;100796.84;5031277;28;20037;-65
2023/07/02 04:38:29;;;;;;;12.48;8.35;;;;;;;23.44;47.98;100802.97;5030524;28;20033;-65
2023/07/02 04:41:01;;;;;;;13.63;8.70;;;;;;;23.42;48.33;100799.66;5030912;28;20098;-65
2023/07/02 04:43:29;;;;;;;10.90;7.72;;;;;;;23.42;48.09;100799.66;5030302;28;21020;-65
2023/07/02 04:45:55;;;;;;;13.07;8.35;;;;;;;23.41;48.29;100808.63;5031325;28;20183;-66
2023/07/02 04:48:20;;;;;;;11.85;8.52;;;;;;;23.41;48.01;100807.78;5030742;28;20116;-64
2023/07/02 04:50:45;;;;;;;13.15;7.93;;;;;;;23.41;48.02;100811.28;5030542;28;20029;-64
2023/07/02 04:53:10;;;;;;;12.80;8.27;;;;;;;23.41;48.13;100805.13;5030339;28;20036;-64
2023/07/02 04:55:36;;;;;;;13.68;8.25;;;;;;;23.42;47.97;100809.47;5030029;28;20029;-65
2023/07/02 04:58:01;;;;;;;11.77;8.40;;;;;;;23.41;48.20;100811.28;5030425;28;20049;-65
2023/07/02 05:00:26;;;;;;;11.38;7.57;;;;;;;23.42;48.19;100817.44;5031559;28;20037;-65
2023/07/02 05:02:52;;;;;;;13.02;7.75;;;;;;;23.40;47.75;100820.25;5031202;28;20764;-65
2023/07/02 05:05:18;;;;;;;13.07;7.72;;;;;;;23.40;47.57;100817.59;5030839;28;20385;-65
2023/07/02 05:07:43;;;;;;;14.85;8.35;;;;;;;23.41;47.50;100826.41;5031179;28;20032;-65
2023/07/02 05:10:09;;;;;;;12.48;7.80;;;;;;;23.40;47.69;100822.94;5030495;28;20386;-65
2023/07/02 05:12:34;;;;;;;12.48;7.90;;;;;;;23.38;47.97;100830.22;5030792;28;20041;-65
2023/07/02 05:14:59;;;;;;;13.05;7.93;;;;;;;23.39;47.49;100823.91;5031091;28;20033;-65
2023/07/02 05:17:25;;;;;;;12.43;7.88;;;;;;;23.39;47.58;100829.22;5030977;28;20029;-66
2023/07/02 05:19:50;;;;;;;13.90;7.63;;;;;;;23.38;47.51;100832.88;5031194;28;20073;-65
2023/07/02 05:22:15;;;;;;;13.43;7.47;;;;;;;23.39;47.83;100839.88;5030526;28;20030;-66
2023/07/02 05:24:41;;;;;;;12.60;7.28;;;;;;;23.36;47.49;100833.03;5030976;28;20120;-65
2023/07/02 05:27:06;;;;;;;13.00;7.20;;;;;;;23.38;47.24;100843.50;5030759;28;20029;-64
2023/07/02 05:29:31;;;;;;;11.48;6.90;;;;;;;23.39;47.20;100853.16;5031127;28;20037;-65
2023/07/02 05:31:57;;;;;;;12.55;7.20;;;;;;;23.38;47.20;100851.47;5030826;28;20037;-64
2023/07/02 05:34:22;;;;;;;13.27;7.75;;;;;;;23.39;47.51;100853.16;5029924;28;20030;-64
2023/07/02 05:36:47;;;;;;;12.43;7.22;;;;;;;23.36;46.87;100858.78;5030406;28;20067;-66
2023/07/02 05:39:13;;;;;;;11.68;6.97;;;;;;;23.39;46.85;100863.78;5030293;28;20022;-64
2023/07/02 05:41:38;;;;;;;12.02;6.82;;;;;;;23.38;47.42;100867.44;5029091;28;20034;-66
2023/07/02 05:44:03;;;;;;;12.75;6.40;;;;;;;23.36;46.87;100858.78;5030542;28;20446;-65
2023/07/02 05:46:29;;;;;;;13.93;7.70;;;;;;;23.36;46.98;100864.13;5030342;28;20025;-65
2023/07/02 05:48:57;;;;;;;11.07;6.53;;;;;;;23.37;46.93;100865.78;5030175;28;20056;-65
2023/07/02 05:51:23;;;;;;;12.57;6.78;;;;;;;23.35;47.22;100868.59;5029931;28;20590;-66
2023/07/02 05:53:49;;;;;;;11.15;6.65;;;;;;;23.36;46.73;100872.09;5030070;28;20391;-66
2023/07/02 05:56:15;;;;;;;14.02;6.47;;;;;;;23.36;47.07;100874.75;5029873;28;20118;-65
2023/07/02 05:58:40;;;;;;;12.88;7.55;;;;;;;23.35;47.13;100865.94;5030027;28;20103;-66
2023/07/02 06:01:06;;;;;;;11.70;6.57;;;;;;;23.37;46.71;100876.44;5030627;28;20103;-65
2023/07/02 06:03:32;;;;;;;11.20;6.88;;;;;;;23.36;46.63;100878.22;5030386;28;20029;-66
2023/07/02 06:05:57;;;;;;;11.10;6.28;;;;;;;23.35;47.03;100878.38;5030309;28;20201;-65
2023/07/02 06:08:23;;;;;;;11.70;6.65;;;;;;;23.36;46.55;100885.38;5034087;28;20037;-66
2023/07/02 06:10:48;;;;;;;14.18;6.68;;;;;;;23.35;46.46;100883.72;5033680;28;20382;-65
2023/07/02 06:13:14;;;;;;;10.10;6.03;;;;;;;23.36;46.50;100882.72;5033904;28;20120;-66
2023/07/02 06:15:39;;;;;;;10.90;6.18;;;;;;;23.34;46.94;100882.88;5034018;28;20528;-66
2023/07/02 06:18:05;;;;;;;10.25;6.15;;;;;;;23.35;46.37;100889.03;5033568;28;20827;-65
2023/07/02 06:20:30;;;;;;;10.13;5.78;;;;;;;23.34;46.42;100880.22;5033624;28;20115;-65
2023/07/02 06:22:55;;;;;;;12.00;6.63;;;;;;;23.35;46.76;100894.34;5033561;28;20424;-65
2023/07/02 06:25:21;;;;;;;11.88;6.10;;;;;;;23.36;46.76;100888.03;5033918;28;20041;-65
2023/07/02 06:27:46;;;;;;;11.45;6.03;;;;;;;23.36;46.62;100896.84;5033205;28;20041;-65
2023/07/02 06:30:12;;;;;;;10.45;5.90;;;;;;;23.36;46.52;100891.53;5033738;28;20029;-64
2023/07/02 06:32:37;;;;;;;9.57;5.72;;;;;;;23.36;46.29;100904.00;5033113;28;20473;-65
2023/07/02 06:35:03;;;;;;;10.43;6.07;;;;;;;23.34;46.74;100912.13;5033541;28;20132;-66
2023/07/02 06:37:28;;;;;;;10.63;6.20;;;;;;;23.34;46.79;100912.13;5033087;28;20059;-65
2023/07/02 06:39:53;;;;;;;11.07;5.77;;;;;;;23.33;46.55;100905.13;5033686;28;20500;-65
2023/07/02 06:42:19;;;;;;;11.87;5.90;;;;;;;23.34;46.66;100911.31;5033006;28;20290;-64
2023/07/02 06:44:44;;;;;;;12.82;5.88;;;;;;;23.32;44.48;100914.13;5033111;28;20270;-64
2023/07/02 06:47:09;;;;;;;11.35;5.57;;;;;;;23.31;45.18;100911.63;5033174;28;20762;-64
2023/07/02 06:49:35;;;;;;;10.32;5.63;;;;;;;23.31;46.37;100915.09;5033095;28;20495;-66
2023/07/02 06:52:00;;;;;;;11.32;5.65;;;;;;;23.32;46.76;100921.25;5032771;28;20041;-65
2023/07/02 06:54:26;;;;;;;12.85;6.03;;;;;;;23.32;46.57;100923.91;5033254;28;20044;-67
2023/07/02 06:56:51;;;;;;;9.27;5.57;;;;;;;23.33;46.84;100921.09;5033214;28;20039;-66
2023/07/02 06:59:23;;;;;;;11.20;5.75;;;;;;;23.32;46.88;100930.06;5032992;28;20444;-66
2023/07/02 07:01:49;;;;;;;11.60;5.55;;;;;;;23.32;46.77;100935.41;5033247;28;20030;-67
2023/07/02 07:04:14;;;;;;;10.50;5.60;;;;;;;23.33;47.27;100926.41;5032885;28;20488;-66
2023/07/02 07:06:40;;;;;;;12.05;5.72;;;;;;;23.33;46.67;100925.59;5032726;28;20025;-66
2023/07/02 07:09:05;;;;;;;10.07;5.20;;;;;;;23.34;47.22;100930.75;5032715;28;20554;-65
2023/07/02 07:11:31;;;;;;;12.02;5.80;;;;;;;23.35;46.75;100934.22;5032840;28;20135;-65
2023/07/02 07:13:56;;;;;;;12.20;5.43;;;;;;;23.36;47.14;100947.38;5032918;28;20039;-66
2023/07/02 07:16:22;;;;;;;10.83;5.60;;;;;;;23.38;46.99;100941.06;5032895;28;20028;-66
2023/07/02 07:18:47;;;;;;;9.90;5.50;;;;;;;23.38;46.73;100944.56;5028727;28;20642;-66
2023/07/02 07:21:13;;;;;;;11.27;6.00;;;;;;;23.38;47.07;100952.53;5031498;28;20037;-68
2023/07/02 07:23:39;;;;;;;13.38;4.95;;;;;;;23.41;47.26;100948.75;5032304;28;20039;-68
2023/07/02 07:26:04;;;;;;;9.82;4.93;;;;;;;23.39;47.05;100948.06;5031988;28;20033;-69
2023/07/02 07:28:30;;;;;;;11.05;5.55;;;;;;;23.41;46.93;100954.88;5031801;28;20037;-72
2023/07/02 07:30:55;;;;;;;10.07;5.20;;;;;;;23.42;47.41;100959.22;5031797;28;20199;-71
2023/07/02 07:33:20;;;;;;;9.57;5.60;;;;;;;23.45;47.07;100966.88;5031470;28;20274;-72
2023/07/02 07:35:46;;;;;;;9.65;5.05;;;;;;;23.47;47.33;100972.06;5031951;28;20029;-71
2023/07/02 07:38:14;;;;;;;9.95;5.47;;;;;;;23.46;47.02;100976.50;5031344;28;20039;-71
2023/07/02 07:40:39;;;;;;;10.85;5.10;;;;;;;23.47;46.86;100972.88;5030166;28;20032;-67
2023/07/02 07:43:04;;;;;;;9.83;4.77;;;;;;;23.51;47.24;100976.91;5031571;28;20398;-71
2023/07/02 07:45:29;;;;;;;10.40;5.67;;;;;;;23.54;47.21;100976.59;5031778;28;20254;-69
2023/07/02 07:47:55;;;;;;;9.65;4.80;;;;;;;23.55;47.04;100980.91;5031814;28;20746;-67
2023/07/02 07:50:20;;;;;;;10.27;4.93;;;;;;;23.55;47.16;100980.91;5031421;28;20033;-72
2023/07/02 07:52:46;;;;;;;9.02;5.00;;;;;;;23.56;47.37;100981.75;5031364;28;20490;-67
2023/07/02 07:55:11;;;;;;;10.73;5.00;;;;;;;23.56;47.14;100984.41;5031272;28;20048;-68
2023/07/02 07:57:37;;;;;;;8.38;4.82;;;;;;;23.59;46.63;100985.91;5029556;28;20270;-69
2023/07/02 08:00:05;;;;;;;9.90;5.22;;;;;;;23.60;46.90;100991.06;5031142;28;20045;-68
2023/07/02 08:02:30;;;;;;;9.10;4.88;;;;;;;23.62;46.51;100989.06;5031181;28;20025;-70
2023/07/02 08:04:56;;;;;;;9.27;4.82;;;;;;;23.64;46.30;100980.94;5030576;28;20044;-69
2023/07/02 08:07:21;;;;;;;10.57;4.85;;;;;;;23.64;46.16;100984.44;5030693;28;20029;-69
2023/07/02 08:09:47;;;;;;;8.48;4.65;;;;;;;23.67;46.63;100988.59;5031348;28;20088;-70
2023/07/02 08:12:13;;;;;;;7.65;4.28;;;;;;;23.69;45.96;100987.47;5030947;28;20037;-68
2023/07/02 08:14:38;;;;;;;9.07;4.28;;;;;;;23.69;46.37;100984.81;5030701;28;20508;-68
2023/07/02 08:17:03;;;;;;;9.20;4.87;;;;;;;23.72;46.07;100992.47;5030667;28;20108;-73
2023/07/02 08:19:29;;;;;;;10.00;5.05;;;;;;;23.70;46.29;100982.97;5029418;28;20718;-65
2023/07/02 08:21:54;;;;;;;7.95;4.22;;;;;;;23.71;45.68;101004.09;5031051;28;21135;-68
2023/07/02 08:24:19;;;;;;;8.25;4.30;;;;;;;23.71;45.56;100998.78;5030458;28;20107;-71
2023/07/02 08:26:45;;;;;;;8.20;4.40;;;;;;;23.73;45.87;101001.28;5027988;28;20390;-68
2023/07/02 08:29:10;;;;;;;9.02;4.72;;;;;;;23.74;45.57;101000.31;5029892;28;20417;-70
2023/07/02 08:31:36;;;;;;;8.15;4.30;;;;;;;23.73;45.18;101004.78;5030835;28;20045;-68
2023/07/02 08:34:01;;;;;;;8.95;4.15;;;;;;;23.76;45.41;101008.94;5030195;28;20761;-69
2023/07/02 08:36:28;;;;;;;8.65;4.22;;;;;;;23.77;45.30;101012.47;5030084;28;20037;-70
2023/07/02 08:38:53;;;;;;;9.50;4.47;;;;;;;23.81;45.03;101019.94;5031182;28;20037;-69
2023/07/02 08:41:20;;;;;;;8.85;4.38;;;;;;;23.77;44.89;101015.13;5030543;28;20041;-69
2023/07/02 08:43:48;;;;;;;9.00;4.68;;;;;;;23.78;45.34;101016.78;5029699;28;20588;-67
2023/07/02 08:46:15;;;;;;;7.82;4.15;;;;;;;23.80;45.13;101012.13;5030147;28;20504;-69
2023/07/02 08:48:40;;;;;;;8.65;4.07;;;;;;;23.81;45.10;101017.28;5030352;28;20116;-71
2023/07/02 08:51:06;;;;;;;8.80;4.88;;;;;;;23.81;45.18;101014.63;5029940;28;20120;-66
2023/07/02 08:53:33;;;;;;;10.07;4.32;;;;;;;23.82;45.29;101021.63;5027672;28;20033;-67
2023/07/02 08:56:03;;;;;;;10.57;4.68;;;;;;;23.79;45.13;101015.78;5028045;28;20099;-67
2023/07/02 08:58:29;;;;;;;8.32;4.18;;;;;;;23.78;45.32;101020.25;5029534;28;20029;-68
2023/07/02 09:01:07;;;;;;;8.18;4.05;;;;;;;23.77;45.31;101023.94;5030218;28;20036;-68
2023/07/02 09:03:32;;;;;;;9.25;4.25;;;;;;;23.81;45.24;101019.13;5029968;28;20137;-69
2023/07/02 09:05:58;;;;;;;8.05;3.90;;;;;;;23.82;44.86;101018.13;5030167;28;20541;-67
2023/07/02 09:08:25;;;;;;;9.68;4.32;;;;;;;23.82;44.84;101020.81;5030396;28;20044;-68
2023/07/02 09:10:50;;;;;;;9.05;4.88;;;;;;;23.82;45.21;101015.47;5030388;28;20173;-66
2023/07/02 09:13:16;;;;;;;9.05;4.32;;;;;;;23.84;44.90;101014.34;5029498;28;20192;-65
2023/07/02 09:15:42;;;;;;;8.45;4.47;;;;;;;23.85;44.35;101010.69;5029142;28;20082;-66
2023/07/02 09:18:17;;;;;;;8.50;4.15;;;;;;;23.86;44.70;101007.06;5030365;28;20033;-68
2023/07/02 09:20:43;;;;;;;8.65;4.13;;;;;;;23.88;44.36;101006.91;5030100;28;20110;-66
2023/07/02 09:23:08;;;;;;;9.85;4.03;;;;;;;23.89;44.58;101019.19;5030153;28;20537;-67
2023/07/02 09:25:36;;;;;;;8.07;3.75;;;;;;;23.88;44.56;101020.19;5029444;28;20389;-68
2023/07/02 09:28:01;;;;;;;9.90;4.22;;;;;;;23.89;44.18;101016.53;5030388;28;20033;-68
2023/07/02 09:30:27;;;;;;;9.05;4.03;;;;;;;23.89;44.30;101021.84;5029927;28;20032;-68
2023/07/02 09:32:54;;;;;;;8.52;3.80;;;;;;;23.93;44.11;101011.75;5030258;28;20041;-68
2023/07/02 09:35:19;;;;;;;7.45;3.85;;;;;;;23.88;43.93;101015.69;5030003;28;20109;-67
2023/07/02 09:37:46;;;;;;;7.75;3.95;;;;;;;23.93;44.13;101011.75;5030133;28;20320;-67
2023/07/02 09:40:12;;;;;;;9.05;4.05;;;;;;;23.92;43.67;101010.06;5029238;28;20433;-66
2023/07/02 09:42:39;;;;;;;8.82;4.03;;;;;;;23.88;43.79;101012.22;5032434;28;20039;-64
2023/07/02 09:45:08;;;;;;;9.80;4.10;;;;;;;23.86;44.24;101023.03;5033454;28;20095;-65
2023/07/02 09:47:37;;;;;;;7.75;3.75;;;;;;;23.85;44.14;101009.88;5033363;28;20032;-68
2023/07/02 09:50:08;;;;;;;7.22;3.78;;;;;;;23.88;44.22;101023.69;5033714;28;20037;-67
2023/07/02 09:52:35;;;;;;;8.13;4.10;;;;;;;23.93;43.66;101020.56;5032576;28;20363;-67
2023/07/02 09:55:00;;;;;;;8.82;4.10;;;;;;;23.96;43.35;101020.25;5031831;28;20037;-69
2023/07/02 09:57:27;;;;;;;8.60;4.45;;;;;;;24.00;43.78;101018.09;5033240;28;20159;-69
2023/07/02 09:59:52;;;;;;;10.30;4.45;;;;;;;23.97;43.32;101019.22;5033779;28;20041;-68
2023/07/02 10:02:18;;;;;;;7.80;3.90;;;;;;;23.99;43.49;101019.06;5032202;28;20027;-68
2023/07/02 10:04:45;;;;;;;7.32;4.00;;;;;;;23.97;43.99;101029.06;5034012;28;20033;-68
2023/07/02 10:07:11;;;;;;;8.32;4.13;;;;;;;23.98;43.50;101030.72;5034485;28;20037;-68
2023/07/02 10:09:45;;;;;;;7.47;3.50;;;;;;;23.92;44.08;101034.03;5034232;28;20033;-68
2023/07/02 10:12:21;;;;;;;9.27;4.07;;;;;;;23.92;44.11;101039.34;5034197;28;20045;-66
2023/07/02 10:14:48;;;;;;;7.45;3.88;;;;;;;23.91;44.08;101041.19;5033729;28;20477;-68
2023/07/02 10:17:53;;;;;;;9.95;4.00;;;;;;;23.92;43.97;101039.34;5032845;28;20037;-68
2023/07/02 10:20:31;;;;;;;7.88;4.00;;;;;;;23.89;43.58;101038.69;5025614;28;20053;-65
2023/07/02 10:22:56;;;;;;;9.80;3.97;;;;;;;23.89;44.10;101043.16;5031423;28;20442;-67
2023/07/02 10:25:26;;;;;;;6.57;4.03;;;;;;;23.85;44.17;101039.16;5032983;28;20116;-67
2023/07/02 10:27:52;;;;;;;10.35;3.88;;;;;;;23.85;44.15;101050.63;5033310;28;20033;-67
2023/07/02 10:30:17;;;;;;;7.40;3.83;;;;;;;23.83;44.26;101035.75;5031285;28;21002;-66
2023/07/02 10:32:43;;;;;;;8.88;3.67;;;;;;;23.83;44.21;101038.41;5032297;28;20068;-67
2023/07/02 10:35:15;;;;;;;8.55;4.20;;;;;;;23.81;44.47;101035.09;5032211;28;20474;-71
2023/07/02 10:37:41;;;;;;;10.68;4.18;;;;;;;23.91;43.84;101025.22;5032856;28;20029;-70
2023/07/02 10:40:07;;;;;;;8.52;4.00;;;;;;;23.93;44.16;101043.69;5032183;28;20029;-65
2023/07/02 10:42:34;;;;;;;8.90;3.90;;;;;;;23.93;44.24;101052.50;5031052;28;20029;-66
2023/07/02 10:44:59;;;;;;;14.68;4.32;;;;;;;23.94;43.95;101059.50;5031654;28;20032;-68
2023/07/02 10:47:24;;;;;;;8.38;4.05;;;;;;;23.98;43.69;101062.66;5031293;28;20037;-71
2023/07/02 10:49:50;;;;;;;8.35;3.78;;;;;;;23.96;44.39;101057.50;5038770;28;20091;-69
2023/07/02 10:52:15;;;;;;;8.63;3.80;;;;;;;23.95;44.31;101061.16;5033604;28;20051;-70
2023/07/02 10:54:46;;;;;;;8.48;4.10;;;;;;;23.93;44.55;101052.50;5031531;28;20041;-69
2023/07/02 10:57:20;;;;;;;9.30;4.03;;;;;;;23.89;44.12;101044.00;5033186;28;20028;-69
2023/07/02 10:59:45;;;;;;;8.48;4.38;;;;;;;23.94;44.56;101051.50;5033116;28;20083;-70
2023/07/02 11:02:11;;;;;;;10.88;4.50;;;;;;;23.92;44.72;101052.66;5033204;28;20037;-69
2023/07/02 11:04:37;;;;;;;11.35;4.25;;;;;;;23.86;44.33;101048.78;5030414;28;20034;-67
2023/07/02 11:07:02;;;;;;;10.30;4.45;;;;;;;23.85;44.17;101047.97;5031625;28;20056;-69
2023/07/02 11:09:28;;;;;;;8.75;4.60;;;;;;;23.83;44.47;101043.75;5032143;28;20413;-69
2023/07/02 11:11:58;;;;;;;11.75;4.20;;;;;;;23.82;44.99;101053.56;5032180;28;20071;-74
2023/07/02 11:14:35;;;;;;;9.10;4.40;;;;;;;23.87;44.54;101064.59;5031718;28;20037;-69